Time;durP1;ratioP1;P1;durP2;ratioP2;P2;SDS_P1;SDS_P2;PMS_P1;PMS_P2;Temp;Humidity;BMP_temperature;BMP_pressure;BME280_temperature;BME280_humidity;BME280_pressure;Samples;Min_cycle;Max_cycle;Signal;HPM_P1;HPM_P2
2023/11/30 00:02:18;;;;;;;5.78;2.87;;;5.40;68.70;;;;;;2287626;55;21212;-66
2023/11/30 00:04:44;;;;;;;5.62;2.78;;;5.40;68.70;;;;;;2523066;54;21027;-66
2023/11/30 00:07:12;;;;;;;5.78;2.87;;;5.40;68.80;;;;;;2288715;55;21047;-66
2023/11/30 00:09:38;;;;;;;5.47;2.60;;;5.40;68.90;;;;;;2522821;54;20982;-67
2023/11/30 00:12:05;;;;;;;3.95;2.40;;;5.40;69.00;;;;;;2518458;54;21073;-66
2023/11/30 00:14:34;;;;;;;4.78;2.22;;;5.40;69.00;;;;;;2520210;54;20995;-66
2023/11/30 00:17:02;;;;;;;5.20;2.70;;;5.40;69.00;;;;;;2288194;55;20972;-66
2023/11/30 00:19:28;;;;;;;4.32;2.37;;;5.40;69.00;;;;;;2522735;54;20935;-67
2023/11/30 00:21:55;;;;;;;5.57;2.50;;;5.40;69.00;;;;;;2522233;54;21504;-67
2023/11/30 00:24:24;;;;;;;4.45;2.28;;;5.40;68.90;;;;;;2517316;54;20998;-66
2023/11/30 00:26:51;;;;;;;4.90;2.20;;;5.40;68.90;;;;;;2288607;55;21075;-66
2023/11/30 00:29:17;;;;;;;4.87;2.40;;;5.40;69.00;;;;;;2287783;55;21239;-66
2023/11/30 00:31:44;;;;;;;5.30;2.60;;;5.40;69.00;;;;;;2521180;54;20984;-65
2023/11/30 00:34:10;;;;;;;3.95;2.15;;;5.40;69.00;;;;;;2518294;54;20958;-66
2023/11/30 00:36:36;;;;;;;4.72;2.33;;;5.30;69.00;;;;;;2521657;54;20956;-66
2023/11/30 00:39:03;;;;;;;4.62;2.15;;;5.40;69.00;;;;;;2288351;55;20987;-67
2023/11/30 00:41:30;;;;;;;3.80;1.90;;;5.40;68.90;;;;;;2287561;55;21020;-67
2023/11/30 00:43:57;;;;;;;3.40;1.62;;;5.30;68.70;;;;;;2522625;54;21512;-67
2023/11/30 00:46:26;;;;;;;4.00;2.12;;;5.30;68.60;;;;;;2288448;55;20983;-66
2023/11/30 00:48:52;;;;;;;4.12;2.00;;;5.30;68.50;;;;;;2287861;55;21024;-67
2023/11/30 00:51:19;;;;;;;3.80;1.85;;;5.30;68.40;;;;;;2288040;54;20956;-67
2023/11/30 00:53:45;;;;;;;5.07;2.33;;;5.20;68.20;;;;;;2288216;55;21335;-66
2023/11/30 00:56:11;;;;;;;4.55;2.40;;;5.20;68.20;;;;;;2288529;55;20948;-65
2023/11/30 00:58:38;;;;;;;5.22;1.80;;;5.20;68.20;;;;;;2288084;54;21047;-65
2023/11/30 01:01:04;;;;;;;6.72;2.28;;;5.10;68.10;;;;;;2288865;54;20954;-66
2023/11/30 01:03:31;;;;;;;3.70;1.45;;;5.10;68.20;;;;;;2519603;54;20960;-66
2023/11/30 01:05:58;;;;;;;4.28;1.55;;;5.10;68.20;;;;;;2288288;55;21072;-67
2023/11/30 01:08:24;;;;;;;4.20;1.70;;;5.10;68.20;;;;;;2288435;55;21055;-66
2023/11/30 01:10:50;;;;;;;3.87;1.90;;;5.00;68.20;;;;;;2287902;55;20995;-65
2023/11/30 01:13:17;;;;;;;3.45;1.73;;;5.00;68.20;;;;;;2288474;55;21012;-66
2023/11/30 01:15:43;;;;;;;3.65;1.70;;;5.00;68.20;;;;;;2523002;54;20975;-64
2023/11/30 01:18:09;;;;;;;3.47;1.60;;;5.00;68.20;;;;;;2516249;54;21328;-66
2023/11/30 01:20:36;;;;;;;3.45;1.87;;;4.90;68.00;;;;;;2287625;55;21007;-65
2023/11/30 01:23:02;;;;;;;3.58;1.55;;;4.90;68.00;;;;;;2522564;54;20951;-66
2023/11/30 01:25:29;;;;;;;4.22;1.87;;;4.90;68.00;;;;;;2522533;54;21025;-65
2023/11/30 01:27:55;;;;;;;5.97;1.90;;;4.90;67.90;;;;;;2288025;54;21039;-65
2023/11/30 01:30:21;;;;;;;4.18;1.75;;;4.80;67.90;;;;;;2287544;55;20955;-65
2023/11/30 01:32:48;;;;;;;4.00;1.95;;;4.80;68.00;;;;;;2287200;56;21004;-66
2023/11/30 01:35:15;;;;;;;4.55;2.00;;;4.80;68.00;;;;;;2288191;55;21026;-66
2023/11/30 01:37:42;;;;;;;3.50;1.80;;;4.70;68.00;;;;;;2522307;54;21983;-65
2023/11/30 01:40:09;;;;;;;3.60;1.67;;;4.70;68.00;;;;;;2522461;54;21703;-66
2023/11/30 01:42:36;;;;;;;2.80;1.33;;;4.70;68.00;;;;;;2287852;55;21041;-67
2023/11/30 01:45:03;;;;;;;2.47;1.02;;;4.70;68.00;;;;;;2287905;55;20995;-66
2023/11/30 01:47:31;;;;;;;3.50;1.40;;;4.60;68.00;;;;;;2522445;54;21042;-65
2023/11/30 01:49:58;;;;;;;3.85;1.77;;;4.70;68.20;;;;;;2521408;54;20963;-67
2023/11/30 01:52:26;;;;;;;3.70;1.52;;;4.60;68.10;;;;;;2522252;54;20971;-66
2023/11/30 01:54:53;;;;;;;4.00;1.90;;;4.60;68.10;;;;;;2288083;55;21015;-66
2023/11/30 01:57:19;;;;;;;3.37;1.60;;;4.60;68.00;;;;;;2519023;54;20955;-66
2023/11/30 01:59:46;;;;;;;4.60;2.20;;;4.60;68.10;;;;;;2287630;55;20948;-66
2023/11/30 02:02:13;;;;;;;5.20;2.25;;;4.60;68.20;;;;;;2288296;55;21028;-66
2023/11/30 02:04:40;;;;;;;4.10;1.75;;;4.50;68.20;;;;;;2521655;54;21370;-65
2023/11/30 02:07:07;;;;;;;3.22;1.70;;;4.50;68.20;;;;;;2287180;55;21031;-66
2023/11/30 02:09:34;;;;;;;3.42;1.58;;;4.50;68.90;;;;;;2521179;54;20956;-65
2023/11/30 02:12:12;;;;;;;4.22;1.85;;;4.50;68.20;;;;;;2521941;54;21015;-65
2023/11/30 02:14:39;;;;;;;4.10;1.75;;;4.50;68.00;;;;;;2522613;54;21050;-67
2023/11/30 02:17:07;;;;;;;3.08;1.40;;;4.50;68.20;;;;;;2287725;55;20971;-66
2023/11/30 02:19:33;;;;;;;3.60;1.58;;;4.40;68.10;;;;;;2516710;54;20982;-67
2023/11/30 02:22:02;;;;;;;2.65;1.15;;;4.40;68.20;;;;;;2521902;54;20987;-66
2023/11/30 02:24:30;;;;;;;3.53;1.20;;;4.40;68.30;;;;;;2288185;55;20947;-67
2023/11/30 02:26:57;;;;;;;4.18;1.50;;;4.40;68.40;;;;;;2521279;54;21688;-66
2023/11/30 02:29:24;;;;;;;2.28;1.20;;;4.40;68.50;;;;;;2288115;55;21007;-66
2023/11/30 02:31:51;;;;;;;2.53;1.12;;;4.40;68.50;;;;;;2287940;55;20976;-65
2023/11/30 02:34:18;;;;;;;3.42;1.10;;;4.40;69.30;;;;;;2287305;55;21019;-67
2023/11/30 02:36:44;;;;;;;2.45;1.00;;;4.40;68.70;;;;;;2268380;56;21038;-66
2023/11/30 02:39:26;;;;;;;4.12;1.08;;;4.40;68.70;;;;;;2520296;54;20963;-66
2023/11/30 02:41:53;;;;;;;2.70;1.40;;;4.40;68.50;;;;;;2288136;55;21773;-67
2023/11/30 02:44:19;;;;;;;2.60;1.30;;;4.40;68.70;;;;;;2289077;55;21195;-66
2023/11/30 02:46:48;;;;;;;2.40;1.02;;;4.40;68.80;;;;;;2519772;54;20991;-67
2023/11/30 02:49:16;;;;;;;3.03;1.35;;;4.40;68.80;;;;;;2521479;54;21041;-67
2023/11/30 02:51:42;;;;;;;3.05;1.40;;;4.40;68.90;;;;;;2287382;54;21236;-66
2023/11/30 02:54:12;;;;;;;3.53;1.50;;;4.50;69.10;;;;;;2288405;55;20954;-65
2023/11/30 02:56:39;;;;;;;3.75;1.52;;;4.50;69.10;;;;;;2289552;54;21047;-65
2023/11/30 02:59:06;;;;;;;2.83;1.27;;;4.50;69.10;;;;;;2517364;54;20960;-67
2023/11/30 03:01:32;;;;;;;2.85;1.20;;;4.50;69.10;;;;;;2288116;55;21442;-67
2023/11/30 03:03:59;;;;;;;3.00;1.35;;;4.50;69.10;;;;;;2287852;55;20983;-66
2023/11/30 03:06:25;;;;;;;3.15;1.20;;;4.50;69.10;;;;;;2287967;54;21035;-65
2023/11/30 03:08:52;;;;;;;2.78;1.33;;;4.50;69.00;;;;;;2517857;54;20994;-67
2023/11/30 03:11:18;;;;;;;5.00;1.45;;;4.50;69.00;;;;;;2287050;55;21127;-66
2023/11/30 03:13:44;;;;;;;2.45;1.00;;;4.50;69.00;;;;;;2522296;54;20935;-66
2023/11/30 03:16:11;;;;;;;2.30;1.02;;;4.50;69.00;;;;;;2288416;56;21055;-65
2023/11/30 03:18:41;;;;;;;2.60;1.10;;;4.50;69.00;;;;;;2288219;55;21456;-67
2023/11/30 03:21:17;;;;;;;2.92;1.02;;;4.50;68.90;;;;;;2522260;54;21020;-66
2023/11/30 03:23:43;;;;;;;2.05;1.00;;;4.60;69.00;;;;;;2287844;55;21504;-67
2023/11/30 03:26:10;;;;;;;2.17;0.90;;;4.50;69.00;;;;;;2522117;54;21393;-66
2023/11/30 03:28:36;;;;;;;2.58;0.95;;;4.50;69.10;;;;;;2287610;55;21015;-67
2023/11/30 03:31:03;;;;;;;2.45;0.95;;;4.50;69.20;;;;;;2522488;54;21476;-67
2023/11/30 03:33:29;;;;;;;1.52;0.70;;;4.60;69.30;;;;;;2522559;54;21751;-66
2023/11/30 03:35:56;;;;;;;1.95;0.70;;;4.60;69.30;;;;;;2521199;54;20919;-66
2023/11/30 03:38:24;;;;;;;1.85;0.70;;;4.60;69.20;;;;;;2522977;54;20983;-66
2023/11/30 03:40:50;;;;;;;1.80;0.80;;;4.60;69.30;;;;;;2521505;54;21054;-66
2023/11/30 03:43:17;;;;;;;2.25;0.60;;;4.60;69.40;;;;;;2521978;54;21219;-67
2023/11/30 03:45:44;;;;;;;1.70;0.80;;;4.60;69.40;;;;;;2522543;54;20968;-67
2023/11/30 03:48:12;;;;;;;1.33;0.62;;;4.60;69.50;;;;;;2522380;54;20952;-66
2023/11/30 03:50:39;;;;;;;1.20;0.60;;;4.60;69.40;;;;;;2522523;54;20979;-67
2023/11/30 03:53:05;;;;;;;1.08;0.52;;;4.70;69.50;;;;;;2521652;54;21014;-66
2023/11/30 03:55:34;;;;;;;3.37;0.80;;;4.70;69.50;;;;;;2294366;55;20995;-66
2023/11/30 03:58:00;;;;;;;1.60;0.60;;;4.70;69.60;;;;;;2516589;55;21513;-66
2023/11/30 04:00:28;;;;;;;3.37;0.70;;;4.70;69.60;;;;;;2283992;55;21516;-66
2023/11/30 04:02:57;;;;;;;2.70;0.80;;;4.70;69.70;;;;;;2287301;55;21007;-66
2023/11/30 04:05:24;;;;;;;1.50;0.70;;;4.80;69.80;;;;;;2522088;54;20963;-65
2023/11/30 04:07:51;;;;;;;2.70;1.00;;;4.80;69.80;;;;;;2287392;56;20988;-66
2023/11/30 04:10:17;;;;;;;3.20;1.25;;;4.80;69.90;;;;;;2522092;54;21555;-65
2023/11/30 04:12:43;;;;;;;3.83;1.30;;;4.80;70.60;;;;;;2287224;55;20983;-65
2023/11/30 04:15:10;;;;;;;4.03;1.90;;;4.80;69.90;;;;;;2516923;54;21293;-67
2023/11/30 04:17:36;;;;;;;3.55;1.90;;;4.90;70.00;;;;;;2521764;54;20948;-65
2023/11/30 04:20:03;;;;;;;4.12;1.95;;;4.90;70.00;;;;;;2521451;54;21473;-65
2023/11/30 04:22:30;;;;;;;3.92;1.87;;;4.90;70.10;;;;;;2287680;55;20964;-67
2023/11/30 04:24:56;;;;;;;4.20;1.87;;;5.00;70.20;;;;;;2521649;54;20967;-66
2023/11/30 04:27:22;;;;;;;5.15;2.22;;;5.00;70.30;;;;;;2286709;54;20954;-66
2023/11/30 04:29:49;;;;;;;4.10;2.08;;;5.00;70.20;;;;;;2286128;55;20975;-66
2023/11/30 04:32:17;;;;;;;3.67;1.80;;;5.00;70.20;;;;;;2287913;55;20955;-66
2023/11/30 04:34:43;;;;;;;3.37;1.62;;;5.10;70.20;;;;;;2288952;55;20959;-66
2023/11/30 04:37:09;;;;;;;3.65;1.60;;;5.10;70.20;;;;;;2522657;54;20987;-66
2023/11/30 04:39:37;;;;;;;2.75;1.60;;;5.10;70.10;;;;;;2521801;54;20951;-67
2023/11/30 04:42:04;;;;;;;3.95;1.45;;;5.10;70.00;;;;;;2515881;54;21120;-66
2023/11/30 04:44:30;;;;;;;4.03;1.70;;;5.20;70.10;;;;;;2518652;54;20983;-66
2023/11/30 04:47:00;;;;;;;3.20;1.37;;;5.20;70.10;;;;;;2287170;55;21015;-66
2023/11/30 04:49:26;;;;;;;2.75;1.30;;;5.30;70.20;;;;;;2288428;55;21441;-67
2023/11/30 04:51:52;;;;;;;4.00;1.50;;;5.20;70.00;;;;;;2288023;55;22238;-66
2023/11/30 04:54:19;;;;;;;3.42;1.60;;;5.30;70.10;;;;;;2521779;54;20944;-66
2023/11/30 04:56:45;;;;;;;3.65;1.70;;;5.30;70.10;;;;;;2521625;54;20959;-66
2023/11/30 04:59:11;;;;;;;3.05;1.25;;;5.30;70.10;;;;;;2286548;54;20975;-67
2023/11/30 05:01:38;;;;;;;2.40;1.10;;;5.30;70.10;;;;;;2522450;54;20960;-67
2023/11/30 05:04:04;;;;;;;2.72;1.17;;;5.30;70.10;;;;;;2522155;54;20999;-67
2023/11/30 05:06:30;;;;;;;2.15;1.00;;;5.40;70.10;;;;;;2288421;56;21039;-67
2023/11/30 05:08:58;;;;;;;1.83;0.98;;;5.40;70.10;;;;;;2521873;54;20971;-66
2023/11/30 05:11:24;;;;;;;2.78;1.25;;;5.40;70.10;;;;;;2287585;55;21232;-66
2023/11/30 05:13:53;;;;;;;2.83;1.27;;;5.40;70.10;;;;;;2521662;54;21457;-66
2023/11/30 05:16:19;;;;;;;2.45;1.25;;;5.40;70.10;;;;;;2522949;54;21008;-66
2023/11/30 05:18:46;;;;;;;2.90;1.12;;;5.50;70.20;;;;;;2287679;55;20967;-66
2023/11/30 05:21:12;;;;;;;3.00;1.33;;;5.50;70.20;;;;;;2287198;55;20963;-66
2023/11/30 05:23:41;;;;;;;3.87;1.98;;;5.50;70.20;;;;;;2522897;54;21002;-66
2023/11/30 05:26:07;;;;;;;4.43;2.17;;;5.50;70.20;;;;;;2521922;54;22032;-67
2023/11/30 05:28:33;;;;;;;4.78;1.90;;;5.50;70.20;;;;;;2288348;55;21026;-67
2023/11/30 05:31:00;;;;;;;3.72;1.80;;;5.60;70.20;;;;;;2522272;54;20956;-66
2023/11/30 05:33:29;;;;;;;4.18;2.20;;;5.60;70.20;;;;;;2522296;54;21002;-66
2023/11/30 05:35:56;;;;;;;5.43;2.45;;;5.60;70.20;;;;;;2521629;54;21664;-66
2023/11/30 05:38:22;;;;;;;4.80;2.58;;;5.60;70.20;;;;;;2288371;55;20983;-67
2023/11/30 05:40:49;;;;;;;5.25;2.62;;;5.60;70.10;;;;;;2288299;55;21030;-68
2023/11/30 05:43:15;;;;;;;4.47;2.25;;;5.70;70.30;;;;;;2522622;54;20991;-66
2023/11/30 05:45:43;;;;;;;4.12;2.35;;;5.70;70.20;;;;;;2289720;55;21298;-67
2023/11/30 05:48:12;;;;;;;4.28;2.00;;;5.70;70.30;;;;;;2285661;54;20962;-66
2023/11/30 05:50:38;;;;;;;3.15;1.70;;;5.70;70.30;;;;;;2286039;55;20979;-66
2023/11/30 05:53:05;;;;;;;3.33;1.45;;;5.70;70.30;;;;;;2521640;54;21019;-66
2023/11/30 05:55:31;;;;;;;3.47;1.52;;;5.80;70.40;;;;;;2288379;55;20995;-66
2023/11/30 05:57:57;;;;;;;3.37;1.60;;;5.80;70.40;;;;;;2287226;55;21813;-67
2023/11/30 06:00:24;;;;;;;2.30;1.10;;;5.80;70.40;;;;;;2287660;55;21089;-67
2023/11/30 06:02:50;;;;;;;2.72;1.10;;;5.80;70.40;;;;;;2288176;55;21067;-65
2023/11/30 06:05:17;;;;;;;2.53;1.12;;;5.80;70.30;;;;;;2288008;54;21445;-67
2023/11/30 06:07:45;;;;;;;2.97;1.20;;;5.90;70.40;;;;;;2522685;54;21035;-66
2023/11/30 06:10:14;;;;;;;3.62;1.60;;;5.90;70.30;;;;;;2287498;55;21130;-66
2023/11/30 06:12:41;;;;;;;2.67;1.27;;;5.90;70.30;;;;;;2286511;55;20981;-66
2023/11/30 06:15:09;;;;;;;2.80;1.37;;;5.90;70.20;;;;;;2287999;55;21524;-66
2023/11/30 06:17:37;;;;;;;3.80;1.95;;;5.90;70.20;;;;;;2289113;55;21107;-67
2023/11/30 06:20:05;;;;;;;4.47;2.00;;;6.00;70.30;;;;;;2287696;55;21552;-65
2023/11/30 06:22:31;;;;;;;4.87;2.60;;;6.00;70.30;;;;;;2522629;54;21023;-67
2023/11/30 06:24:58;;;;;;;3.65;1.75;;;6.00;70.30;;;;;;2287362;55;20988;-67
2023/11/30 06:27:24;;;;;;;3.65;1.58;;;6.00;70.30;;;;;;2522510;54;21046;-67
2023/11/30 06:29:51;;;;;;;3.62;1.52;;;6.10;70.30;;;;;;2287856;55;21030;-67
2023/11/30 06:32:17;;;;;;;3.35;1.60;;;6.00;70.30;;;;;;2287614;55;21216;-66
2023/11/30 06:34:43;;;;;;;2.87;1.30;;;6.10;70.30;;;;;;2288187;55;20987;-66
2023/11/30 06:37:11;;;;;;;2.55;1.17;;;6.10;70.30;;;;;;2522405;54;21047;-66
2023/11/30 06:39:41;;;;;;;2.35;0.93;;;6.10;70.90;;;;;;2523172;54;20956;-66
2023/11/30 06:42:07;;;;;;;4.25;1.67;;;6.10;70.80;;;;;;2520678;54;20993;-67
2023/11/30 06:44:34;;;;;;;4.20;1.75;;;6.10;70.20;;;;;;2284842;54;20943;-66
2023/11/30 06:47:00;;;;;;;7.35;3.35;;;6.10;70.20;;;;;;2288084;55;22523;-66
2023/11/30 06:49:26;;;;;;;8.23;3.72;;;6.10;70.20;;;;;;2288434;55;21550;-66
2023/11/30 06:51:55;;;;;;;9.30;4.25;;;6.20;70.30;;;;;;2522837;54;20963;-67
2023/11/30 06:54:22;;;;;;;7.97;3.40;;;6.20;70.20;;;;;;2518412;54;20986;-66
2023/11/30 06:56:49;;;;;;;6.37;3.25;;;6.20;70.20;;;;;;2517858;54;21447;-66
2023/11/30 06:59:15;;;;;;;7.32;3.22;;;6.20;70.20;;;;;;2287260;55;20960;-67
2023/11/30 07:01:42;;;;;;;7.03;3.05;;;6.20;70.20;;;;;;2521739;54;20994;-66
2023/11/30 07:04:08;;;;;;;7.07;2.95;;;6.20;70.20;;;;;;2287996;55;21051;-66
2023/11/30 07:06:34;;;;;;;4.55;2.37;;;6.20;70.10;;;;;;2288135;55;21904;-67
2023/11/30 07:09:01;;;;;;;4.45;2.37;;;6.30;70.20;;;;;;2288430;55;21041;-66
2023/11/30 07:11:27;;;;;;;3.87;1.87;;;6.30;70.20;;;;;;2522421;54;21918;-67
2023/11/30 07:13:53;;;;;;;3.78;1.77;;;6.30;70.10;;;;;;2521204;54;21022;-66
2023/11/30 07:16:20;;;;;;;2.78;1.42;;;6.30;70.10;;;;;;2288676;55;20973;-67
2023/11/30 07:18:46;;;;;;;3.47;1.40;;;6.30;70.10;;;;;;2509617;54;20979;-67
2023/11/30 07:21:14;;;;;;;2.72;1.35;;;6.30;70.20;;;;;;2521862;54;20947;-66
2023/11/30 07:23:41;;;;;;;3.50;1.62;;;6.30;70.20;;;;;;2523050;54;20971;-66
2023/11/30 07:26:14;;;;;;;2.92;1.52;;;6.30;70.10;;;;;;2288500;54;22323;-66
2023/11/30 07:28:41;;;;;;;2.97;1.50;;;6.40;70.10;;;;;;2266126;56;20939;-67
2023/11/30 07:31:07;;;;;;;3.58;1.40;;;6.40;70.10;;;;;;2522123;54;20996;-66
2023/11/30 07:33:35;;;;;;;3.08;1.37;;;6.40;70.10;;;;;;2522676;54;21015;-65
2023/11/30 07:36:05;;;;;;;4.47;1.85;;;6.40;70.10;;;;;;2288053;55;20967;-67
2023/11/30 07:38:31;;;;;;;2.35;1.27;;;6.40;70.10;;;;;;2288283;55;20987;-66
2023/11/30 07:40:58;;;;;;;3.17;1.23;;;6.40;70.10;;;;;;2522825;54;21686;-67
2023/11/30 07:43:26;;;;;;;2.70;1.20;;;6.40;70.10;;;;;;2287877;55;21003;-66
2023/11/30 07:45:53;;;;;;;3.45;1.30;;;6.40;70.10;;;;;;2521707;54;20931;-66
2023/11/30 07:48:19;;;;;;;3.53;1.60;;;6.40;70.10;;;;;;2520505;54;21484;-68
2023/11/30 07:50:45;;;;;;;2.60;1.00;;;6.40;70.10;;;;;;2519151;54;21831;-66
2023/11/30 07:53:12;;;;;;;3.45;1.40;;;6.40;70.10;;;;;;2521950;54;21447;-67
2023/11/30 07:55:38;;;;;;;2.78;1.42;;;6.40;70.10;;;;;;2288351;55;20952;-66
2023/11/30 07:58:05;;;;;;;3.58;1.52;;;6.40;70.00;;;;;;2288005;54;21079;-67
2023/11/30 08:00:31;;;;;;;3.85;1.90;;;6.40;69.90;;;;;;2522750;54;21011;-66
2023/11/30 08:02:59;;;;;;;4.12;1.90;;;6.40;69.90;;;;;;2288645;55;20967;-67
2023/11/30 08:05:25;;;;;;;3.60;1.55;;;6.40;69.90;;;;;;2522721;54;20983;-66
2023/11/30 08:07:52;;;;;;;3.15;1.55;;;6.50;70.10;;;;;;2517224;54;20966;-67
2023/11/30 08:10:18;;;;;;;3.97;1.90;;;6.50;70.10;;;;;;2517375;54;20972;-66
2023/11/30 08:12:45;;;;;;;4.20;2.00;;;6.50;70.10;;;;;;2523309;54;20952;-66
2023/11/30 08:15:11;;;;;;;5.37;1.58;;;6.50;70.00;;;;;;2287962;55;20980;-66
2023/11/30 08:17:38;;;;;;;7.20;3.92;;;6.50;70.00;;;;;;2517454;54;21008;-66
2023/11/30 08:20:09;;;;;;;5.82;3.25;;;6.50;70.00;;;;;;2288533;55;21028;-67
2023/11/30 08:22:36;;;;;;;5.90;3.03;;;6.50;70.00;;;;;;2517255;54;21643;-66
2023/11/30 08:25:03;;;;;;;5.30;2.83;;;6.50;70.00;;;;;;2522818;54;20968;-68
2023/11/30 08:27:33;;;;;;;6.53;2.97;;;6.50;70.00;;;;;;2288821;55;20972;-66
2023/11/30 08:29:59;;;;;;;6.95;3.92;;;6.50;70.00;;;;;;2522086;54;21003;-67
2023/11/30 08:32:26;;;;;;;10.00;5.20;;;6.50;70.00;;;;;;2516747;54;20931;-66
2023/11/30 08:34:53;;;;;;;10.45;5.53;;;6.50;70.00;;;;;;2287232;55;21045;-67
2023/11/30 08:37:20;;;;;;;9.63;5.93;;;6.60;70.10;;;;;;2288284;55;20972;-66
2023/11/30 08:39:47;;;;;;;10.95;6.00;;;6.60;70.10;;;;;;2289216;55;21383;-66
2023/11/30 08:42:13;;;;;;;10.75;6.12;;;6.50;70.00;;;;;;2287919;55;21429;-67
2023/11/30 08:44:41;;;;;;;10.75;5.82;;;6.60;70.20;;;;;;2288691;55;20971;-67
2023/11/30 08:47:07;;;;;;;10.30;5.85;;;6.60;70.20;;;;;;2521617;54;21434;-67
2023/11/30 08:49:35;;;;;;;10.90;5.60;;;6.60;70.30;;;;;;2288960;55;20995;-66
2023/11/30 08:52:01;;;;;;;9.35;5.25;;;6.60;70.30;;;;;;2521773;54;21023;-67
2023/11/30 08:54:28;;;;;;;9.30;4.72;;;6.60;70.30;;;;;;2522752;54;21877;-67
2023/11/30 08:56:54;;;;;;;7.87;4.40;;;6.60;70.20;;;;;;2288882;55;21855;-66
2023/11/30 08:59:21;;;;;;;6.15;3.62;;;6.60;70.30;;;;;;2289623;55;21780;-67
2023/11/30 09:01:48;;;;;;;6.37;3.35;;;6.70;70.40;;;;;;2288273;55;20955;-65
2023/11/30 09:04:14;;;;;;;6.50;3.62;;;6.70;70.40;;;;;;2516844;54;21264;-66
2023/11/30 09:06:41;;;;;;;5.30;3.15;;;6.70;70.40;;;;;;2522273;54;21007;-66
2023/11/30 09:09:07;;;;;;;6.35;3.25;;;6.70;70.50;;;;;;2287914;55;20967;-67
2023/11/30 09:11:34;;;;;;;4.35;2.72;;;6.70;70.50;;;;;;2521343;54;21922;-67
2023/11/30 09:14:01;;;;;;;4.80;2.55;;;6.80;70.60;;;;;;2288646;55;21833;-67
2023/11/30 09:16:28;;;;;;;5.30;3.05;;;6.80;70.60;;;;;;2287896;55;21456;-67
2023/11/30 09:18:55;;;;;;;9.43;3.67;;;6.80;70.50;;;;;;2523034;54;21094;-67
2023/11/30 09:21:23;;;;;;;7.03;3.75;;;6.80;70.40;;;;;;2289277;55;21085;-67
2023/11/30 09:23:52;;;;;;;6.47;3.80;;;6.80;70.30;;;;;;2290103;54;21028;-67
2023/11/30 09:26:22;;;;;;;5.90;3.35;;;6.80;70.30;;;;;;2523006;54;21020;-66
2023/11/30 09:28:48;;;;;;;5.18;2.90;;;6.80;70.30;;;;;;2523535;54;21003;-66
2023/11/30 09:31:14;;;;;;;5.65;3.12;;;6.80;70.50;;;;;;2287644;55;21032;-67
2023/11/30 09:33:42;;;;;;;5.65;3.10;;;6.80;70.50;;;;;;2288984;55;20955;-66
2023/11/30 09:36:08;;;;;;;5.47;2.72;;;6.90;70.70;;;;;;2288133;54;21063;-66
2023/11/30 09:38:39;;;;;;;4.80;2.80;;;6.90;70.70;;;;;;2287441;55;21031;-66
2023/11/30 09:41:06;;;;;;;6.70;2.75;;;6.90;70.70;;;;;;2288099;55;20947;-66
2023/11/30 09:43:33;;;;;;;5.30;2.90;;;6.90;70.60;;;;;;2288447;55;21055;-66
2023/11/30 09:46:00;;;;;;;4.78;2.78;;;6.90;70.60;;;;;;2523203;54;20986;-67
2023/11/30 09:48:26;;;;;;;5.62;2.67;;;7.00;70.70;;;;;;2292602;55;21024;-66
2023/11/30 09:50:52;;;;;;;4.32;2.40;;;7.00;70.60;;;;;;2285035;55;20964;-66
2023/11/30 09:53:19;;;;;;;4.30;2.40;;;7.00;70.50;;;;;;2522829;54;20975;-67
2023/11/30 09:55:45;;;;;;;4.22;2.30;;;7.00;70.50;;;;;;2288502;55;20971;-68
2023/11/30 09:58:13;;;;;;;4.18;1.98;;;7.00;70.50;;;;;;2291573;55;21861;-67
2023/11/30 10:00:39;;;;;;;4.05;2.05;;;7.10;70.60;;;;;;2516660;54;20976;-67
2023/11/30 10:03:08;;;;;;;4.03;2.20;;;7.10;70.50;;;;;;2289028;55;21043;-67
2023/11/30 10:05:34;;;;;;;3.50;1.80;;;7.10;70.40;;;;;;2286200;54;20989;-66
2023/11/30 10:08:01;;;;;;;3.67;1.98;;;7.10;70.40;;;;;;2287780;55;20964;-66
2023/11/30 10:10:27;;;;;;;3.85;2.25;;;7.10;70.40;;;;;;2522239;54;20963;-67
2023/11/30 10:12:55;;;;;;;3.78;2.40;;;7.10;70.40;;;;;;2521995;54;21018;-66
2023/11/30 10:15:22;;;;;;;4.10;2.15;;;7.20;70.60;;;;;;2284036;55;21424;-68
2023/11/30 10:17:50;;;;;;;3.80;2.20;;;7.20;70.70;;;;;;2289109;54;21343;-67
2023/11/30 10:20:17;;;;;;;4.20;2.33;;;7.20;70.70;;;;;;2286697;55;20995;-67
2023/11/30 10:22:43;;;;;;;4.82;2.15;;;7.30;70.60;;;;;;2290853;55;20972;-68
2023/11/30 10:25:12;;;;;;;4.85;2.45;;;7.30;70.60;;;;;;2517854;54;20952;-67
2023/11/30 10:27:39;;;;;;;4.00;2.15;;;7.30;70.70;;;;;;2288129;55;20955;-67
2023/11/30 10:30:06;;;;;;;3.97;2.35;;;7.30;70.60;;;;;;2523126;54;21035;-67
2023/11/30 10:32:37;;;;;;;4.05;2.33;;;7.40;70.70;;;;;;2288064;55;21011;-67
2023/11/30 10:35:05;;;;;;;4.65;2.58;;;7.40;70.60;;;;;;2522661;54;21749;-68
2023/11/30 10:37:42;;;;;;;4.35;2.25;;;7.40;70.50;;;;;;2288232;55;21294;-66
2023/11/30 10:40:10;;;;;;;4.12;2.12;;;7.50;70.40;;;;;;2523140;54;21005;-67
2023/11/30 10:42:36;;;;;;;4.05;2.45;;;7.50;70.60;;;;;;2290960;55;21714;-67
2023/11/30 10:45:04;;;;;;;4.60;2.62;;;7.50;70.60;;;;;;2284530;54;21481;-68
2023/11/30 10:47:30;;;;;;;5.90;2.85;;;7.50;70.60;;;;;;2522700;54;20987;-66
2023/11/30 10:49:59;;;;;;;5.87;3.12;;;7.50;70.50;;;;;;2287937;55;20972;-66
2023/11/30 10:52:28;;;;;;;6.00;3.25;;;7.60;70.60;;;;;;2287518;54;20975;-67
2023/11/30 10:55:19;;;;;;;5.32;3.15;;;7.60;70.40;;;;;;2288425;55;21429;-67
2023/11/30 10:57:46;;;;;;;5.15;3.12;;;7.60;70.00;;;;;;2288307;55;20957;-66
2023/11/30 11:00:16;;;;;;;7.05;3.37;;;7.60;71.10;;;;;;2523128;54;21829;-67
2023/11/30 11:02:44;;;;;;;5.12;3.10;;;7.60;70.20;;;;;;2522861;54;20979;-67
2023/11/30 11:05:13;;;;;;;5.07;2.62;;;7.70;70.30;;;;;;2287940;55;21027;-66
2023/11/30 11:07:51;;;;;;;5.43;2.92;;;7.70;70.30;;;;;;2287926;55;21204;-66
2023/11/30 11:10:27;;;;;;;5.50;3.12;;;7.70;70.60;;;;;;2287628;54;20974;-68
2023/11/30 11:12:58;;;;;;;5.90;3.15;;;7.70;70.00;;;;;;2289925;55;20998;-66
2023/11/30 11:15:28;;;;;;;5.60;3.03;;;7.80;70.30;;;;;;2520002;54;21446;-67
2023/11/30 11:18:07;;;;;;;5.32;3.35;;;7.80;70.30;;;;;;2523162;54;20951;-67
2023/11/30 11:20:35;;;;;;;5.43;3.33;;;7.80;70.40;;;;;;2288233;55;21893;-67
2023/11/30 11:23:08;;;;;;;5.00;3.20;;;7.80;70.20;;;;;;2523156;54;21008;-66
2023/11/30 11:25:44;;;;;;;5.72;3.12;;;7.80;70.00;;;;;;2522472;54;20972;-66
2023/11/30 11:28:11;;;;;;;7.80;3.10;;;7.80;69.80;;;;;;2288202;55;21354;-67
2023/11/30 11:30:41;;;;;;;5.53;2.92;;;7.80;70.10;;;;;;2287846;55;20974;-67
2023/11/30 11:33:09;;;;;;;9.02;4.10;;;7.90;70.80;;;;;;2522610;54;20976;-67
2023/11/30 11:35:35;;;;;;;9.27;4.37;;;7.90;70.10;;;;;;2288394;55;20975;-67
2023/11/30 11:38:01;;;;;;;9.38;4.40;;;7.90;69.90;;;;;;2512753;54;20955;-67
2023/11/30 11:40:28;;;;;;;10.57;4.50;;;7.90;69.90;;;;;;2278237;55;20961;-66
2023/11/30 11:42:56;;;;;;;10.93;4.57;;;7.90;69.90;;;;;;2516211;55;21030;-67
2023/11/30 11:45:24;;;;;;;11.88;5.12;;;7.90;69.90;;;;;;2284124;55;20982;-67
2023/11/30 11:47:51;;;;;;;10.90;5.00;;;7.90;69.90;;;;;;2283283;55;20974;-66
2023/11/30 11:50:18;;;;;;;8.45;3.97;;;7.90;70.00;;;;;;2506783;55;21054;-67
2023/11/30 11:52:45;;;;;;;6.22;3.70;;;7.90;70.10;;;;;;2283501;55;21587;-66
2023/11/30 11:55:13;;;;;;;6.40;3.75;;;8.00;70.20;;;;;;2283379;55;21034;-67
2023/11/30 11:57:40;;;;;;;5.97;3.50;;;7.90;70.00;;;;;;2257393;56;21223;-66
2023/11/30 12:00:20;;;;;;;7.60;3.97;;;8.00;70.10;;;;;;2283691;55;21494;-66
2023/11/30 12:02:46;;;;;;;5.03;3.00;;;8.00;70.10;;;;;;2283040;56;20965;-67
2023/11/30 12:05:21;;;;;;;6.30;3.37;;;8.00;70.20;;;;;;2513193;54;20990;-66
2023/11/30 12:07:56;;;;;;;6.72;3.42;;;8.00;70.20;;;;;;2277188;55;21054;-67
2023/11/30 12:10:39;;;;;;;5.65;3.40;;;8.00;70.30;;;;;;2282855;55;21045;-67
2023/11/30 12:13:08;;;;;;;5.90;3.37;;;8.00;70.20;;;;;;2283966;55;21875;-67
2023/11/30 12:15:35;;;;;;;5.80;3.60;;;8.00;70.20;;;;;;2280558;55;20947;-66
2023/11/30 12:18:01;;;;;;;6.82;3.62;;;8.10;70.30;;;;;;2280501;55;20969;-66
2023/11/30 12:20:29;;;;;;;6.70;3.67;;;8.00;70.20;;;;;;2283191;55;21042;-67
2023/11/30 12:22:56;;;;;;;8.05;3.90;;;8.10;70.40;;;;;;2277427;55;21055;-66
2023/11/30 12:25:28;;;;;;;10.63;4.93;;;8.10;70.30;;;;;;2283297;55;20958;-68
2023/11/30 12:27:54;;;;;;;14.10;6.53;;;8.10;70.40;;;;;;2282558;55;20978;-67
2023/11/30 12:30:20;;;;;;;11.30;5.47;;;8.10;70.40;;;;;;2283167;55;21057;-68
2023/11/30 12:32:50;;;;;;;8.00;4.45;;;8.10;70.30;;;;;;2515803;55;21539;-66
2023/11/30 12:35:17;;;;;;;6.97;4.00;;;8.10;70.40;;;;;;2283992;55;21002;-67
2023/11/30 12:37:46;;;;;;;5.97;3.42;;;8.10;70.40;;;;;;2276725;55;21511;-68
2023/11/30 12:40:13;;;;;;;7.30;3.70;;;8.10;70.40;;;;;;2516692;54;21006;-68
2023/11/30 12:42:44;;;;;;;5.68;3.12;;;8.10;70.30;;;;;;2256917;56;21006;-67
2023/11/30 12:45:10;;;;;;;6.50;3.90;;;8.20;70.30;;;;;;2283576;55;20985;-68
2023/11/30 12:47:39;;;;;;;5.60;3.45;;;8.20;70.40;;;;;;2283803;55;21113;-67
2023/11/30 12:50:06;;;;;;;5.32;3.35;;;8.20;70.40;;;;;;2283591;55;20993;-67
2023/11/30 12:52:32;;;;;;;6.30;2.67;;;8.20;70.40;;;;;;2283953;55;20954;-66
2023/11/30 12:54:59;;;;;;;4.82;2.92;;;8.20;70.40;;;;;;2516931;54;20961;-67
2023/11/30 12:57:25;;;;;;;4.65;2.97;;;8.20;70.40;;;;;;2283521;55;20974;-68
2023/11/30 12:59:52;;;;;;;4.95;2.97;;;8.30;70.50;;;;;;2283250;55;21850;-67